Time;durP1;ratioP1;P1;durP2;ratioP2;P2;SDS_P1;SDS_P2;PMS_P1;PMS_P2;Temp;Humidity;BMP_temperature;BMP_pressure;BME280_temperature;BME280_humidity;BME280_pressure;Samples;Min_cycle;Max_cycle;Signal;HPM_P1;HPM_P2
2023/11/20 00:03:10;;;;;;;13.70;7.80;;;;;;;8.34;77.66;98302.28;234167;213;147881;-57
2023/11/20 00:08:13;;;;;;;12.60;7.10;;;;;;;8.41;77.55;98302.03;234208;215;139957;-57
2023/11/20 00:13:16;;;;;;;13.90;6.90;;;;;;;8.46;77.51;98304.70;234312;215;137789;-60
2023/11/20 00:18:19;;;;;;;10.80;6.60;;;;;;;8.42;77.66;98297.02;234477;215;147547;-60
2023/11/20 00:23:22;;;;;;;11.10;6.40;;;;;;;8.46;77.79;98303.45;234216;215;139295;-60
2023/11/20 00:28:25;;;;;;;10.50;6.40;;;;;;;8.51;77.76;98300.67;234276;215;137202;-60
2023/11/20 00:33:28;;;;;;;12.80;6.30;;;;;;;8.58;77.70;98299.34;233958;213;147709;-62
2023/11/20 00:38:32;;;;;;;10.20;5.90;;;;;;;8.64;77.63;98297.51;234385;215;139099;-60
2023/11/20 00:43:35;;;;;;;9.20;6.20;;;;;;;8.65;77.55;98292.33;234378;215;138207;-60
2023/11/20 00:48:39;;;;;;;12.20;6.80;;;;;;;8.65;77.47;98292.30;234436;215;148021;-60
2023/11/20 00:53:43;;;;;;;11.10;5.70;;;;;;;8.68;77.31;98297.41;234237;215;139611;-60
2023/11/20 00:58:47;;;;;;;12.60;6.10;;;;;;;8.67;77.32;98294.15;234341;215;137580;-60
2023/11/20 01:03:50;;;;;;;11.00;6.10;;;;;;;8.70;77.33;98296.07;234198;214;148073;-59
2023/11/20 01:08:54;;;;;;;12.20;6.40;;;;;;;8.73;77.23;98291.26;234263;216;138805;-59
2023/11/20 01:14:01;;;;;;;13.30;6.90;;;;;;;8.78;77.16;98288.06;234266;214;138374;-60
2023/11/20 01:19:04;;;;;;;;;;;;;;;8.75;76.92;98288.30;234250;216;147214;-58
2023/11/20 01:24:08;;;;;;;13.80;7.30;;;;;;;8.68;76.90;98292.27;234368;216;138747;-60
2023/11/20 01:29:11;;;;;;;10.30;5.80;;;;;;;8.61;77.09;98293.30;234269;214;139210;-60
2023/11/20 01:34:15;;;;;;;11.40;6.60;;;;;;;8.57;77.14;98297.77;234245;216;147578;-60
2023/11/20 01:39:18;;;;;;;11.40;6.40;;;;;;;8.61;77.26;98297.90;234244;215;138757;-60
2023/11/20 01:44:22;;;;;;;11.30;6.40;;;;;;;8.69;77.22;98298.39;234161;215;137123;-59
2023/11/20 01:49:27;;;;;;;14.80;7.10;;;;;;;8.68;77.13;98297.23;234294;215;147339;-59
2023/11/20 01:54:32;;;;;;;13.20;6.30;;;;;;;8.67;77.19;98298.20;234400;216;140272;-60
2023/11/20 01:59:37;;;;;;;12.70;7.10;;;;;;;8.64;77.15;98299.98;234271;216;136999;-60
2023/11/20 02:04:42;;;;;;;11.10;6.70;;;;;;;8.59;77.29;98298.92;234328;213;147591;-60
2023/11/20 02:09:46;;;;;;;8.60;5.90;;;;;;;8.57;77.54;98292.54;234235;215;139039;-60
2023/11/20 02:14:49;;;;;;;10.80;6.60;;;;;;;8.63;77.42;98294.59;234370;213;141002;-57
2023/11/20 02:19:52;;;;;;;11.80;6.30;;;;;;;8.70;77.16;98293.58;234296;215;149141;-59
2023/11/20 02:24:56;;;;;;;11.40;5.90;;;;;;;8.69;77.13;98289.89;234190;213;138831;-61
2023/11/20 02:30:03;;;;;;;9.80;6.00;;;;;;;8.69;77.00;98288.88;234160;214;137283;-60
2023/11/20 02:35:14;;;;;;;11.30;6.00;;;;;;;8.65;77.12;98279.94;234203;216;147696;-61
2023/11/20 02:40:18;;;;;;;9.80;5.30;;;;;;;8.62;77.32;98276.09;234222;216;139013;-60
2023/11/20 02:45:21;;;;;;;10.30;5.10;;;;;;;8.62;77.46;98270.95;234249;216;138486;-61
2023/11/20 02:50:24;;;;;;;9.30;5.40;;;;;;;8.70;77.34;98272.34;234370;213;148158;-62
2023/11/20 02:55:27;;;;;;;8.80;4.90;;;;;;;8.69;77.27;98275.63;234236;216;139739;-62
2023/11/20 03:00:30;;;;;;;9.30;5.60;;;;;;;8.68;77.40;98276.38;234390;216;138235;-60
2023/11/20 03:05:34;;;;;;;13.70;5.40;;;;;;;8.66;77.50;98271.36;234233;216;148168;-60
2023/11/20 03:10:40;;;;;;;9.70;5.30;;;;;;;8.69;77.60;98266.77;234236;216;138695;-59
2023/11/20 03:15:44;;;;;;;9.80;4.90;;;;;;;8.68;77.51;98264.64;234292;216;137925;-60
2023/11/20 03:20:47;;;;;;;9.50;4.50;;;;;;;8.73;77.53;98263.10;234289;216;149344;-60
2023/11/20 03:25:51;;;;;;;11.70;4.90;;;;;;;8.80;77.41;98268.01;234149;216;138968;-60
2023/11/20 03:30:54;;;;;;;9.60;4.80;;;;;;;8.82;77.15;98264.69;234270;213;136806;-61
2023/11/20 03:35:58;;;;;;;9.20;4.60;;;;;;;8.84;77.00;98263.50;234354;216;147355;-61
2023/11/20 03:41:02;;;;;;;9.40;4.70;;;;;;;8.87;76.90;98265.00;234092;216;139361;-59
2023/11/20 03:46:05;;;;;;;8.10;4.90;;;;;;;8.87;76.76;98250.88;234097;215;139986;-55
2023/11/20 03:51:09;;;;;;;9.70;4.50;;;;;;;8.78;76.64;98244.79;234258;216;147660;-56
2023/11/20 03:56:12;;;;;;;8.10;4.20;;;;;;;8.75;76.72;98244.73;234211;209;138655;-57
2023/11/20 04:01:15;;;;;;;9.20;4.40;;;;;;;8.77;76.59;98239.55;234105;215;136894;-59
2023/11/20 04:06:19;;;;;;;8.30;4.40;;;;;;;8.74;76.70;98239.38;234322;215;151045;-55
2023/11/20 04:11:22;;;;;;;7.30;4.00;;;;;;;8.72;76.83;98240.17;234219;214;138768;-57
2023/11/20 04:16:25;;;;;;;9.60;4.20;;;;;;;8.70;76.90;98238.92;234285;215;138322;-57
2023/11/20 04:21:30;;;;;;;9.50;4.60;;;;;;;8.72;76.94;98240.55;234339;215;147551;-57
2023/11/20 04:26:34;;;;;;;6.60;3.70;;;;;;;8.76;77.07;98239.78;234237;216;139874;-57
2023/11/20 04:31:37;;;;;;;9.30;4.40;;;;;;;8.84;77.11;98241.70;234087;214;137132;-58
2023/11/20 04:36:40;;;;;;;9.10;4.10;;;;;;;8.94;76.80;98239.11;234440;214;147592;-58
2023/11/20 04:41:43;;;;;;;11.00;4.80;;;;;;;9.01;76.73;98236.82;234169;216;138848;-58
2023/11/20 04:46:46;;;;;;;7.30;4.50;;;;;;;9.05;76.63;98230.88;234211;216;137801;-58
2023/11/20 04:51:49;;;;;;;10.50;4.60;;;;;;;9.04;76.79;98232.34;234225;213;147962;-58
2023/11/20 04:56:53;;;;;;;7.30;4.30;;;;;;;9.00;77.10;98228.94;234218;213;138644;-58
2023/11/20 05:01:56;;;;;;;8.90;3.80;;;;;;;9.03;77.39;98228.77;234204;216;137165;-57
2023/11/20 05:06:59;;;;;;;10.40;4.10;;;;;;;9.07;77.61;98226.18;234152;213;147542;-57
2023/11/20 05:12:03;;;;;;;8.60;4.40;;;;;;;9.14;77.83;98228.86;234326;216;139767;-58
2023/11/20 05:17:07;;;;;;;9.20;4.20;;;;;;;9.14;78.05;98225.83;234306;216;137014;-57
2023/11/20 05:22:12;;;;;;;13.10;4.30;;;;;;;9.20;78.11;98227.17;234228;214;149276;-57
2023/11/20 05:27:15;;;;;;;7.90;4.40;;;;;;;9.21;78.09;98222.70;234340;216;141008;-58
2023/11/20 05:32:18;;;;;;;11.30;4.00;;;;;;;9.22;78.17;98217.98;234260;214;136783;-58
2023/11/20 05:37:23;;;;;;;10.10;4.70;;;;;;;9.19;78.48;98220.00;234230;216;148050;-59
2023/11/20 05:42:26;;;;;;;8.70;4.00;;;;;;;9.21;78.68;98222.83;234301;214;139392;-57
2023/11/20 05:47:30;;;;;;;7.80;3.70;;;;;;;9.27;78.59;98225.63;234262;214;137727;-58
2023/11/20 05:52:34;;;;;;;8.60;4.30;;;;;;;9.28;78.55;98226.45;234259;213;147710;-56
2023/11/20 05:57:38;;;;;;;9.10;4.50;;;;;;;9.31;78.56;98228.22;234027;213;139243;-57
2023/11/20 06:02:41;;;;;;;9.60;4.20;;;;;;;9.29;78.59;98229.79;234241;214;136971;-58
2023/11/20 06:07:45;;;;;;;11.40;3.80;;;;;;;9.23;78.86;98235.64;234278;215;147546;-58
2023/11/20 06:12:48;;;;;;;10.30;4.10;;;;;;;9.22;79.07;98233.94;234287;215;139553;-58
2023/11/20 06:17:52;;;;;;;6.80;4.10;;;;;;;9.28;79.25;98231.05;234142;213;138350;-58
2023/11/20 06:22:55;;;;;;;6.30;4.10;;;;;;;9.28;79.21;98233.55;234270;215;146797;-58
2023/11/20 06:27:58;;;;;;;7.80;4.50;;;;;;;9.30;79.25;98228.28;234211;216;138913;-58
2023/11/20 06:33:03;;;;;;;9.00;4.00;;;;;;;9.33;79.24;98234.42;234301;215;137588;-58
2023/11/20 06:38:06;;;;;;;7.60;3.50;;;;;;;9.36;78.89;98238.27;234043;216;147669;-58
2023/11/20 06:43:09;;;;;;;8.30;3.90;;;;;;;9.40;78.79;98242.48;234006;216;138545;-57
2023/11/20 06:48:13;;;;;;;7.60;3.80;;;;;;;9.45;78.65;98243.30;234360;215;141090;-58
2023/11/20 06:53:16;;;;;;;5.30;3.70;;;;;;;9.44;78.61;98245.85;234340;215;148126;-57
2023/11/20 06:58:19;;;;;;;7.10;3.70;;;;;;;9.46;78.59;98251.59;234261;216;138999;-58
2023/11/20 07:03:23;;;;;;;9.80;3.60;;;;;;;9.44;78.57;98254.37;234316;216;137636;-56
2023/11/20 07:08:27;;;;;;;7.10;3.90;;;;;;;9.42;78.85;98250.77;234084;216;148184;-56
2023/11/20 07:13:30;;;;;;;7.00;3.50;;;;;;;9.44;79.06;98250.13;234231;213;139292;-56
2023/11/20 07:18:33;;;;;;;7.10;3.50;;;;;;;9.47;79.12;98245.11;234385;216;137816;-57
2023/11/20 07:23:36;;;;;;;6.40;3.40;;;;;;;9.48;79.16;98247.00;233880;215;148104;-60
2023/11/20 07:28:41;;;;;;;60.70;42.70;;;;;;;9.54;79.37;98244.83;234239;213;138776;-55
2023/11/20 07:33:44;;;;;;;6.90;4.20;;;;;;;9.62;79.26;98244.99;234254;213;137012;-53
2023/11/20 07:38:48;;;;;;;66.80;46.70;;;;;;;9.62;79.30;98251.49;234045;214;147530;-55
2023/11/20 07:43:51;;;;;;;8.10;3.90;;;;;;;9.67;79.49;98250.59;234150;208;138772;-53
2023/11/20 07:48:54;;;;;;;7.60;3.90;;;;;;;9.77;79.15;98250.48;234178;215;137313;-55
2023/11/20 07:53:58;;;;;;;7.60;3.50;;;;;;;9.82;78.95;98250.46;234257;214;147857;-55
2023/11/20 07:59:03;;;;;;;6.60;3.40;;;;;;;9.82;78.78;98247.05;234097;215;140076;-54
2023/11/20 08:04:08;;;;;;;51.40;35.80;;;;;;;9.87;78.88;98248.34;233981;213;137617;-58
2023/11/20 08:09:11;;;;;;;9.50;4.20;;;;;;;9.91;79.00;98248.58;233595;214;147655;-55
2023/11/20 08:14:15;;;;;;;7.20;3.50;;;;;;;9.95;78.52;98250.36;234187;214;138894;-55
2023/11/20 08:19:18;;;;;;;8.90;3.20;;;;;;;9.95;78.35;98248.24;234250;215;137936;-56
2023/11/20 08:24:22;;;;;;;6.80;2.70;;;;;;;10.00;78.34;98245.27;234140;213;146658;-53
2023/11/20 08:29:26;;;;;;;6.90;3.70;;;;;;;10.05;77.92;98247.52;234174;214;140739;-54
2023/11/20 08:34:29;;;;;;;6.20;2.90;;;;;;;10.05;77.73;98245.27;234152;208;137004;-53
2023/11/20 08:39:34;;;;;;;11.00;4.10;;;;;;;10.07;77.87;98250.43;234175;214;148268;-56
2023/11/20 08:44:38;;;;;;;;;;;;;;;10.11;77.61;98249.79;234007;213;269677;-54
2023/11/20 08:49:42;;;;;;;8.70;3.00;;;;;;;10.15;77.36;98243.83;234212;212;132085;-54
2023/11/20 08:54:45;;;;;;;5.40;2.80;;;;;;;10.17;77.46;98240.60;234197;214;148366;-55
2023/11/20 08:59:49;;;;;;;6.50;2.90;;;;;;;10.18;77.35;98240.51;234241;213;149810;-55
2023/11/20 09:04:52;;;;;;;6.10;3.20;;;;;;;10.15;77.26;98236.15;234153;208;136793;-54
2023/11/20 09:09:55;;;;;;;6.10;2.90;;;;;;;10.13;77.50;98235.25;234250;213;148147;-53
2023/11/20 09:14:59;;;;;;;6.10;2.90;;;;;;;10.09;77.56;98237.02;234179;214;138858;-60
2023/11/20 09:20:04;;;;;;;5.40;3.00;;;;;;;10.10;77.83;98234.09;234151;212;137468;-59
2023/11/20 09:25:07;;;;;;;5.50;3.10;;;;;;;10.17;77.77;98234.78;234193;214;148119;-59
2023/11/20 09:30:12;;;;;;;8.30;4.80;;;;;;;10.25;78.21;98228.94;234311;216;138807;-59
2023/11/20 09:35:20;;;;;;;7.20;3.50;;;;;;;10.34;77.80;98224.20;234267;215;138539;-62
2023/11/20 09:40:23;;;;;;;6.20;3.40;;;;;;;10.34;77.97;98222.42;234284;215;145987;-62
2023/11/20 09:45:28;;;;;;;6.80;3.90;;;;;;;10.32;78.01;98226.43;234180;216;138889;-62
2023/11/20 09:50:32;;;;;;;7.90;3.70;;;;;;;10.36;78.33;98219.45;234149;214;138209;-62
2023/11/20 09:55:36;;;;;;;6.90;3.90;;;;;;;10.42;78.30;98216.46;234195;214;147724;-62
2023/11/20 10:00:39;;;;;;;10.20;3.80;;;;;;;10.42;78.27;98208.83;234230;216;140973;-63
2023/11/20 10:05:48;;;;;;;7.50;4.00;;;;;;;10.37;78.37;98207.31;234227;216;137809;-63
2023/11/20 10:10:51;;;;;;;8.90;4.50;;;;;;;10.34;78.56;98203.41;234178;216;149186;-62
2023/11/20 10:15:57;;;;;;;8.00;4.20;;;;;;;10.36;78.57;98205.38;234262;215;140549;-62
2023/11/20 10:21:03;;;;;;;5.50;4.20;;;;;;;10.39;78.58;98201.46;234183;216;137154;-59
2023/11/20 10:26:07;;;;;;;10.40;5.00;;;;;;;10.40;78.41;98201.55;234259;215;154370;-58
2023/11/20 10:31:11;;;;;;;7.40;4.10;;;;;;;10.48;78.89;98196.85;234278;214;141443;-60
2023/11/20 10:36:16;;;;;;;8.50;4.20;;;;;;;10.53;78.25;98193.86;234341;212;137910;-60
2023/11/20 10:41:20;;;;;;;10.30;4.50;;;;;;;10.47;77.87;98190.78;234207;214;147671;-60
2023/11/20 10:46:24;;;;;;;9.50;4.30;;;;;;;10.44;78.17;98188.64;234213;214;138926;-60
2023/11/20 10:51:31;;;;;;;283.20;222.60;;;;;;;10.49;78.36;98180.70;234218;213;136873;-59
2023/11/20 10:56:36;;;;;;;11.20;6.40;;;;;;;10.55;78.86;98172.94;234281;212;147303;-59
2023/11/20 11:01:42;;;;;;;8.50;3.60;;;;;;;10.56;78.46;98165.61;234236;213;138651;-60
2023/11/20 11:06:47;;;;;;;7.60;4.00;;;;;;;10.58;78.50;98164.89;234417;215;137044;-59
2023/11/20 11:11:52;;;;;;;8.70;3.90;;;;;;;10.59;78.41;98153.30;233986;212;150356;-59
2023/11/20 11:17:19;;;;;;;8.00;4.10;;;;;;;10.61;78.38;98152.44;234150;213;138909;-59
2023/11/20 11:22:35;;;;;;;7.50;3.80;;;;;;;10.58;78.34;98144.84;234130;213;136977;-59
2023/11/20 11:28:11;;;;;;;10.50;4.40;;;;;;;10.59;78.64;98139.83;234142;212;148888;-59
2023/11/20 11:33:33;;;;;;;137.40;98.30;;;;;;;10.63;78.98;98134.50;234126;214;140093;-58
2023/11/20 11:38:50;;;;;;;10.00;4.40;;;;;;;10.78;78.73;98130.24;234141;213;138020;-59
2023/11/20 11:44:01;;;;;;;8.50;4.00;;;;;;;10.87;78.40;98129.17;234081;213;147583;-59
2023/11/20 11:49:23;;;;;;;7.20;3.40;;;;;;;10.90;78.21;98127.49;234079;208;140312;-58
2023/11/20 11:54:26;;;;;;;5.10;2.90;;;;;;;10.90;78.02;98127.48;234273;214;136996;-60
2023/11/20 11:59:36;;;;;;;4.80;3.00;;;;;;;10.96;78.31;98133.05;234130;208;147602;-60
2023/11/20 12:04:56;;;;;;;4.70;2.80;;;;;;;10.98;78.17;98127.21;234020;213;138899;-60
2023/11/20 12:10:03;;;;;;;5.40;3.50;;;;;;;11.00;77.97;98125.10;233988;213;137971;-61
2023/11/20 12:15:29;;;;;;;5.40;3.20;;;;;;;10.99;77.99;98118.31;234141;215;147372;-59
2023/11/20 12:20:33;;;;;;;4.90;3.30;;;;;;;10.97;78.20;98111.00;234198;215;139990;-60
2023/11/20 12:25:37;;;;;;;5.70;3.10;;;;;;;10.99;78.18;98109.06;234210;213;137743;-60
2023/11/20 12:30:41;;;;;;;6.70;3.30;;;;;;;11.00;78.23;98100.64;234259;215;147872;-59
2023/11/20 12:35:52;;;;;;;4.10;2.90;;;;;;;11.10;78.05;98096.96;234226;215;139419;-60
2023/11/20 12:40:55;;;;;;;7.10;3.50;;;;;;;11.15;77.73;98092.73;234205;214;136967;-58
2023/11/20 12:46:00;;;;;;;6.30;3.60;;;;;;;11.13;77.74;98091.77;234205;216;147665;-60
2023/11/20 12:51:05;;;;;;;;;;;;;;;11.06;77.65;98091.59;234272;215;138866;-59
2023/11/20 12:56:10;;;;;;;6.90;3.40;;;;;;;11.01;77.84;98088.64;234344;215;131454;-59
2023/11/20 13:01:14;;;;;;;4.70;3.00;;;;;;;10.99;77.99;98087.73;234158;214;260347;-60
2023/11/20 13:06:17;;;;;;;5.80;3.00;;;;;;;10.97;78.04;98085.93;234332;213;139442;-59
2023/11/20 13:11:23;;;;;;;6.10;3.00;;;;;;;11.01;78.15;98082.80;234250;216;140343;-61
2023/11/20 13:16:26;;;;;;;10.40;3.80;;;;;;;11.04;78.15;98080.77;234234;210;147695;-60
2023/11/20 13:21:30;;;;;;;5.70;3.70;;;;;;;11.04;78.26;98079.20;234269;215;138993;-61
2023/11/20 13:26:42;;;;;;;9.50;3.80;;;;;;;11.04;78.38;98076.86;234257;214;137904;-60
2023/11/20 13:31:46;;;;;;;6.80;4.20;;;;;;;11.02;78.45;98073.67;234181;214;148660;-61
2023/11/20 13:36:50;;;;;;;5.50;3.60;;;;;;;10.99;78.63;98074.09;234440;215;140723;-61
2023/11/20 13:41:55;;;;;;;6.90;4.00;;;;;;;11.02;78.64;98076.29;234459;216;137963;-62
2023/11/20 13:46:58;;;;;;;12.50;4.30;;;;;;;11.06;78.52;98072.25;234265;216;147745;-61
2023/11/20 13:52:02;;;;;;;7.80;3.80;;;;;;;11.06;78.61;98072.83;234202;209;139998;-60
2023/11/20 13:57:06;;;;;;;12.60;4.40;;;;;;;11.03;78.45;98073.41;234266;213;136772;-61
2023/11/20 14:02:09;;;;;;;8.30;4.10;;;;;;;11.02;78.58;98073.13;234231;214;147477;-60
2023/11/20 14:07:12;;;;;;;7.90;4.00;;;;;;;10.97;78.80;98073.20;234251;216;139841;-60
2023/11/20 14:12:16;;;;;;;6.70;4.00;;;;;;;10.96;79.00;98073.95;234365;216;137867;-60
2023/11/20 14:17:19;;;;;;;8.30;4.70;;;;;;;10.99;79.02;98075.48;234216;214;150372;-61
2023/11/20 14:22:23;;;;;;;8.30;4.40;;;;;;;11.05;79.10;98072.20;234260;216;138778;-60
2023/11/20 14:27:26;;;;;;;9.30;4.10;;;;;;;11.11;78.92;98069.76;234277;216;137647;-60
2023/11/20 14:32:29;;;;;;;7.10;4.10;;;;;;;11.11;78.89;98066.01;234222;216;147675;-60
2023/11/20 14:37:33;;;;;;;5.40;2.60;;;;;;;11.04;79.06;98066.36;234256;214;138837;-60
2023/11/20 14:42:41;;;;;;;5.00;2.80;;;;;;;11.06;78.96;98059.86;234339;216;137448;-61
2023/11/20 14:47:46;;;;;;;5.00;2.90;;;;;;;11.08;78.87;98062.38;234137;216;148294;-59
2023/11/20 14:52:50;;;;;;;6.40;2.90;;;;;;;11.09;78.84;98062.10;234216;214;139060;-61
2023/11/20 14:57:53;;;;;;;4.80;3.00;;;;;;;11.08;78.86;98062.66;234263;216;138569;-62
2023/11/20 15:02:57;;;;;;;5.80;3.20;;;;;;;11.05;79.21;98060.66;234003;215;148911;-62
2023/11/20 15:08:01;;;;;;;6.20;3.20;;;;;;;11.00;79.45;98061.38;234147;215;140638;-63
2023/11/20 15:13:04;;;;;;;8.00;3.80;;;;;;;11.00;79.75;98058.93;234180;215;138300;-63
2023/11/20 15:18:08;;;;;;;7.10;4.20;;;;;;;11.05;79.99;98053.77;234139;214;147626;-61
2023/11/20 15:23:12;;;;;;;7.30;4.30;;;;;;;11.09;79.84;98055.02;233513;213;140170;-59
2023/11/20 15:28:15;;;;;;;6.70;4.00;;;;;;;11.10;79.60;98050.46;234170;213;140858;-60
2023/11/20 15:33:19;;;;;;;8.00;4.60;;;;;;;11.06;79.44;98054.73;233682;212;150944;-62
2023/11/20 15:38:23;;;;;;;7.20;4.00;;;;;;;11.02;79.33;98058.41;233677;215;138813;-59
2023/11/20 15:43:26;;;;;;;5.60;4.00;;;;;;;10.96;79.37;98057.61;233842;215;138831;-60
2023/11/20 15:48:29;;;;;;;5.80;3.80;;;;;;;10.95;79.39;98053.82;233633;216;147762;-61
2023/11/20 15:53:33;;;;;;;5.40;4.20;;;;;;;10.96;79.34;98055.70;233695;213;139266;-60
2023/11/20 15:58:36;;;;;;;5.90;4.60;;;;;;;10.94;79.30;98056.17;234197;214;137466;-60
2023/11/20 16:03:39;;;;;;;8.20;4.90;;;;;;;10.92;79.44;98057.95;234111;214;147295;-62
2023/11/20 16:08:43;;;;;;;5.70;4.20;;;;;;;10.90;79.54;98061.29;234148;213;139480;-62
2023/11/20 16:13:46;;;;;;;6.10;4.20;;;;;;;10.90;79.58;98063.59;233964;213;138209;-62
2023/11/20 16:18:50;;;;;;;6.30;4.50;;;;;;;10.88;79.64;98057.88;233906;213;148171;-62
2023/11/20 16:23:53;;;;;;;7.10;5.00;;;;;;;10.85;79.74;98061.12;233993;215;139251;-62
2023/11/20 16:28:57;;;;;;;8.80;5.30;;;;;;;10.91;80.02;98063.39;234227;215;137922;-61
2023/11/20 16:34:00;;;;;;;7.40;5.40;;;;;;;10.99;79.96;98064.53;234247;216;148216;-65
2023/11/20 16:39:06;;;;;;;8.90;5.80;;;;;;;11.00;79.77;98068.52;234210;216;138910;-62
2023/11/20 16:44:09;;;;;;;8.60;5.90;;;;;;;10.96;79.88;98068.79;234212;209;137605;-62
2023/11/20 16:49:14;;;;;;;9.30;5.30;;;;;;;10.96;80.02;98072.04;233848;213;147786;-62
2023/11/20 16:54:21;;;;;;;7.90;5.60;;;;;;;10.97;80.15;98071.43;233648;214;139022;-63
2023/11/20 16:59:25;;;;;;;8.00;5.60;;;;;;;11.00;80.22;98067.98;233551;213;138268;-63
2023/11/20 17:04:30;;;;;;;9.60;5.70;;;;;;;11.01;80.40;98062.01;234108;215;147807;-63
2023/11/20 17:09:34;;;;;;;9.80;6.80;;;;;;;11.04;80.28;98064.63;234240;216;138755;-62
2023/11/20 17:14:37;;;;;;;9.40;6.60;;;;;;;11.04;80.48;98062.13;234219;213;138083;-64
2023/11/20 17:19:40;;;;;;;9.30;6.10;;;;;;;11.03;80.53;98056.92;234061;214;147706;-64
2023/11/20 17:24:44;;;;;;;9.10;6.10;;;;;;;11.04;80.56;98060.18;234139;213;139898;-62
2023/11/20 17:29:47;;;;;;;16.90;12.50;;;;;;;11.07;80.87;98061.55;233506;213;137503;-62
2023/11/20 17:34:50;;;;;;;9.40;5.90;;;;;;;11.21;80.83;98062.39;233973;210;148009;-63
2023/11/20 17:39:54;;;;;;;9.30;6.00;;;;;;;11.20;80.26;98065.09;234192;214;138687;-62
2023/11/20 17:44:57;;;;;;;9.50;5.50;;;;;;;11.20;80.09;98064.38;233920;214;137174;-59
2023/11/20 17:50:00;;;;;;;10.10;5.40;;;;;;;11.18;79.86;98068.66;233912;213;151030;-61
2023/11/20 17:55:07;;;;;;;7.80;5.00;;;;;;;11.18;79.87;98073.09;233891;214;138947;-60
2023/11/20 18:00:13;;;;;;;8.80;5.70;;;;;;;11.27;79.88;98070.65;233697;208;138398;-59
2023/11/20 18:05:16;;;;;;;9.50;5.90;;;;;;;11.31;79.68;98062.83;234135;215;147319;-59
2023/11/20 18:10:19;;;;;;;10.80;6.20;;;;;;;11.29;79.51;98063.70;234231;213;139630;-60
2023/11/20 18:15:23;;;;;;;8.50;5.30;;;;;;;11.24;79.60;98067.66;234249;216;138264;-59
2023/11/20 18:20:30;;;;;;;9.10;5.30;;;;;;;11.23;79.50;98072.70;234262;213;147350;-59
2023/11/20 18:25:34;;;;;;;7.80;5.30;;;;;;;11.18;79.50;98072.41;234273;216;140056;-59
2023/11/20 18:30:39;;;;;;;7.70;5.60;;;;;;;11.19;79.53;98075.17;233817;213;141083;-59
2023/11/20 18:35:43;;;;;;;9.40;6.00;;;;;;;11.20;79.54;98079.70;234208;208;147578;-59
2023/11/20 18:40:46;;;;;;;16.90;10.70;;;;;;;11.25;80.20;98075.05;233964;216;139056;-60
2023/11/20 18:45:49;;;;;;;9.30;6.00;;;;;;;11.28;79.54;98075.48;234301;215;137856;-61
2023/11/20 18:50:52;;;;;;;8.20;6.10;;;;;;;11.22;79.39;98075.45;234151;216;147280;-62
2023/11/20 18:55:55;;;;;;;26.40;20.60;;;;;;;11.33;80.39;98070.46;234149;214;139818;-61
2023/11/20 19:01:00;;;;;;;7.50;5.20;;;;;;;11.55;78.90;98075.98;234179;213;138033;-60
2023/11/20 19:06:04;;;;;;;6.40;4.40;;;;;;;11.68;78.33;98077.58;234156;213;147590;-60
2023/11/20 19:11:07;;;;;;;5.80;3.70;;;;;;;11.87;77.63;98078.73;234122;212;138899;-60
2023/11/20 19:16:10;;;;;;;6.60;3.70;;;;;;;11.98;77.00;98077.63;234191;213;137520;-61
2023/11/20 19:21:13;;;;;;;4.80;3.70;;;;;;;11.99;76.90;98081.41;234121;212;148174;-60
2023/11/20 19:26:17;;;;;;;114.10;96.70;;;;;;;12.12;76.75;98082.97;234107;216;140065;-60
2023/11/20 19:31:20;;;;;;;7.60;5.20;;;;;;;12.30;76.77;98078.48;233823;209;138178;-59
2023/11/20 19:36:24;;;;;;;8.00;4.60;;;;;;;12.40;75.94;98081.40;234226;214;149669;-61
2023/11/20 19:41:28;;;;;;;9.40;5.30;;;;;;;12.40;75.57;98076.72;234147;214;140194;-59
2023/11/20 19:46:32;;;;;;;12.30;6.30;;;;;;;12.41;75.66;98076.14;234085;215;137157;-60
2023/11/20 19:51:36;;;;;;;9.80;5.40;;;;;;;12.35;75.57;98080.20;234131;214;147402;-60
2023/11/20 19:56:43;;;;;;;8.40;5.30;;;;;;;12.22;75.62;98083.60;234155;214;138915;-60
2023/11/20 20:01:49;;;;;;;10.00;5.80;;;;;;;12.01;76.17;98085.93;234139;212;139757;-62
2023/11/20 20:06:52;;;;;;;9.60;5.50;;;;;;;11.86;76.68;98090.67;234291;215;147518;-63
2023/11/20 20:11:58;;;;;;;9.30;5.10;;;;;;;11.75;77.00;98090.86;234191;213;140836;-63
2023/11/20 20:17:04;;;;;;;9.40;5.10;;;;;;;11.54;77.53;98092.93;234097;213;137864;-63
2023/11/20 20:22:08;;;;;;;33.00;27.40;;;;;;;11.45;78.22;98096.18;234094;213;148264;-63
2023/11/20 20:27:12;;;;;;;136.30;93.30;;;;;;;11.50;78.71;98100.34;234102;214;138891;-45
2023/11/20 20:32:16;;;;;;;10.70;6.00;;;;;;;11.63;78.79;98098.41;233847;208;138373;-62
2023/11/20 20:37:19;;;;;;;10.10;5.30;;;;;;;11.59;78.28;98111.36;234201;214;150616;-62
2023/11/20 20:42:22;;;;;;;8.00;4.90;;;;;;;11.45;78.44;98106.05;234205;209;138966;-62
2023/11/20 20:47:26;;;;;;;7.20;4.20;;;;;;;11.32;78.84;98110.98;234197;209;137518;-63
2023/11/20 20:52:29;;;;;;;6.50;4.10;;;;;;;11.24;79.03;98112.72;234101;213;147856;-61
2023/11/20 20:57:33;;;;;;;7.30;4.00;;;;;;;11.26;79.19;98113.88;234147;213;138881;-63
2023/11/20 21:02:37;;;;;;;6.60;4.00;;;;;;;11.24;79.06;98113.77;234195;213;137741;-61
2023/11/20 21:07:40;;;;;;;7.90;3.90;;;;;;;11.22;79.14;98115.72;234194;213;150699;-60
2023/11/20 21:12:44;;;;;;;5.50;3.90;;;;;;;11.20;79.14;98113.74;234221;208;139535;-62
2023/11/20 21:17:47;;;;;;;6.20;4.10;;;;;;;11.17;79.21;98113.19;234181;207;137270;-63
2023/11/20 21:22:51;;;;;;;6.30;4.40;;;;;;;11.15;79.44;98113.10;234140;208;148672;-61
2023/11/20 21:27:54;;;;;;;6.70;4.40;;;;;;;11.14;79.67;98112.67;234168;212;138834;-63
2023/11/20 21:32:57;;;;;;;8.70;4.80;;;;;;;11.19;79.71;98116.54;234204;213;137037;-64
2023/11/20 21:38:03;;;;;;;6.90;4.60;;;;;;;11.17;79.78;98113.11;234114;212;148773;-64
2023/11/20 21:43:07;;;;;;;7.20;4.40;;;;;;;11.19;79.73;98118.66;233976;213;139093;-62
2023/11/20 21:48:10;;;;;;;7.30;4.60;;;;;;;11.15;79.81;98121.65;234370;213;137854;-63
2023/11/20 21:53:14;;;;;;;7.10;4.40;;;;;;;11.10;79.86;98122.38;234204;213;148040;-64
2023/11/20 21:58:17;;;;;;;8.40;4.50;;;;;;;11.07;80.02;98119.77;234167;213;139424;-63
2023/11/20 22:03:20;;;;;;;8.70;4.50;;;;;;;11.09;80.01;98121.21;234190;214;138333;-64
2023/11/20 22:08:23;;;;;;;7.00;4.60;;;;;;;11.06;79.82;98120.70;234084;212;147824;-63
2023/11/20 22:13:26;;;;;;;7.90;4.60;;;;;;;11.05;79.86;98118.16;234208;215;139506;-63
2023/11/20 22:18:29;;;;;;;7.50;4.90;;;;;;;11.04;79.77;98116.66;234314;213;137676;-61
2023/11/20 22:23:34;;;;;;;7.50;4.40;;;;;;;11.03;79.78;98118.27;234186;212;148091;-59
2023/11/20 22:28:38;;;;;;;9.70;5.20;;;;;;;10.98;79.72;98123.35;234133;214;138642;-59
2023/11/20 22:33:41;;;;;;;9.40;5.30;;;;;;;11.00;79.70;98130.80;234181;215;137890;-59
2023/11/20 22:38:44;;;;;;;7.60;5.00;;;;;;;11.01;79.49;98136.04;234238;208;147499;-59
2023/11/20 22:43:47;;;;;;;10.40;5.50;;;;;;;11.02;79.48;98141.98;234210;215;141104;-58
2023/11/20 22:48:51;;;;;;;9.40;5.70;;;;;;;11.01;79.42;98143.70;234351;213;137943;-59
2023/11/20 22:53:54;;;;;;;9.20;5.30;;;;;;;10.98;79.66;98147.67;234266;213;148394;-59
2023/11/20 22:58:59;;;;;;;11.20;6.70;;;;;;;11.02;79.69;98144.81;234140;208;140818;-58
2023/11/20 23:04:03;;;;;;;10.70;6.50;;;;;;;11.09;79.64;98146.92;234090;213;138232;-61
2023/11/20 23:09:07;;;;;;;9.30;5.50;;;;;;;11.12;79.32;98140.31;234172;213;147801;-60
2023/11/20 23:14:10;;;;;;;11.70;5.90;;;;;;;11.07;78.86;98134.34;234144;216;140036;-59
2023/11/20 23:19:14;;;;;;;11.80;5.70;;;;;;;10.99;78.64;98133.53;234180;214;138815;-59
2023/11/20 23:24:17;;;;;;;8.20;5.30;;;;;;;10.92;78.65;98129.48;234337;213;149199;-58
2023/11/20 23:29:20;;;;;;;9.00;5.30;;;;;;;10.95;78.76;98126.80;234113;213;140022;-59
2023/11/20 23:34:24;;;;;;;10.60;6.60;;;;;;;10.96;78.55;98128.64;234200;213;137941;-60
2023/11/20 23:39:27;;;;;;;11.90;6.10;;;;;;;10.92;78.46;98128.59;234132;214;147645;-60